createdAt,value
2018-06-10T00:00:22.569Z,23.30
2018-06-10T00:02:51.077Z,23.20
2018-06-10T00:05:19.279Z,23.20
2018-06-10T00:07:47.519Z,23.20
2018-06-10T00:10:15.862Z,23.20
2018-06-10T00:12:44.177Z,23.20
2018-06-10T00:15:12.455Z,23.20
2018-06-10T00:17:40.710Z,23.10
2018-06-10T00:20:09.054Z,23.00
2018-06-10T00:22:37.365Z,22.90
2018-06-10T00:25:06.427Z,22.90
2018-06-10T00:27:34.666Z,22.80
2018-06-10T00:30:02.975Z,22.80
2018-06-10T00:32:31.866Z,22.80
2018-06-10T00:35:00.256Z,22.70
2018-06-10T00:37:28.482Z,22.70
2018-06-10T00:39:56.786Z,22.70
2018-06-10T00:42:25.007Z,22.70
2018-06-10T00:44:53.516Z,22.70
2018-06-10T00:47:22.082Z,22.70
2018-06-10T00:49:50.416Z,22.70
2018-06-10T00:52:18.695Z,22.70
2018-06-10T00:54:47.036Z,22.70
2018-06-10T00:57:15.298Z,22.80
2018-06-10T00:59:43.552Z,22.80
2018-06-10T01:02:11.837Z,22.80
2018-06-10T01:04:40.085Z,22.80
2018-06-10T01:07:08.351Z,22.80
2018-06-10T01:09:36.566Z,22.80
2018-06-10T01:12:04.901Z,22.90
2018-06-10T01:14:33.499Z,22.80
2018-06-10T01:17:01.714Z,22.80
2018-06-10T01:19:29.974Z,22.80
2018-06-10T01:21:58.309Z,22.80
2018-06-10T01:24:26.731Z,22.80
2018-06-10T01:26:54.972Z,22.90
2018-06-10T01:29:23.241Z,22.90
2018-06-10T01:31:51.488Z,22.90
2018-06-10T01:34:19.733Z,23.00
2018-06-10T01:36:47.960Z,23.00
2018-06-10T01:39:16.193Z,23.00
2018-06-10T01:41:44.430Z,23.00
2018-06-10T01:44:12.630Z,22.90
2018-06-10T01:46:40.878Z,23.00
2018-06-10T01:49:09.168Z,23.00
2018-06-10T01:51:37.414Z,22.90
2018-06-10T01:54:05.617Z,22.90
2018-06-10T01:56:33.901Z,22.90
2018-06-10T01:59:02.112Z,22.90
2018-06-10T02:01:30.338Z,22.90
2018-06-10T02:03:58.625Z,22.90
2018-06-10T02:06:26.898Z,22.90
2018-06-10T02:08:55.150Z,23.00
2018-06-10T02:11:23.392Z,22.90
2018-06-10T02:13:51.626Z,22.90
2018-06-10T02:16:19.970Z,22.90
2018-06-10T02:18:48.198Z,22.90
2018-06-10T02:21:16.438Z,22.80
2018-06-10T02:23:44.683Z,22.90
2018-06-10T02:26:12.925Z,22.80
2018-06-10T02:28:41.127Z,22.80
2018-06-10T02:31:09.394Z,22.70
2018-06-10T02:33:37.636Z,22.70
2018-06-10T02:36:05.909Z,22.60
2018-06-10T02:38:34.171Z,22.60
2018-06-10T02:41:02.450Z,22.50
2018-06-10T02:43:30.700Z,22.50
2018-06-10T02:45:58.947Z,22.50
2018-06-10T02:48:27.174Z,22.40
2018-06-10T02:50:55.468Z,22.40
2018-06-10T02:53:23.732Z,22.40
2018-06-10T02:55:51.998Z,22.40
2018-06-10T02:58:20.267Z,22.40
2018-06-10T03:00:48.505Z,22.40
2018-06-10T03:03:16.783Z,22.40
2018-06-10T03:05:45.045Z,22.40
2018-06-10T03:08:13.321Z,22.30
2018-06-10T03:10:41.986Z,22.30
2018-06-10T03:13:10.223Z,22.30
2018-06-10T03:15:38.454Z,22.30
2018-06-10T03:18:06.681Z,22.30
2018-06-10T03:20:34.921Z,22.40
2018-06-10T03:23:03.220Z,22.40
2018-06-10T03:25:31.446Z,22.40
2018-06-10T03:27:59.694Z,22.40
2018-06-10T03:30:27.912Z,22.40
2018-06-10T03:32:56.178Z,22.40
2018-06-10T03:35:24.449Z,22.40
2018-06-10T03:37:52.728Z,22.40
2018-06-10T03:40:20.946Z,22.40
2018-06-10T03:42:49.193Z,22.40
2018-06-10T03:45:17.500Z,22.30
2018-06-10T03:47:45.699Z,22.40
2018-06-10T03:50:13.948Z,22.40
2018-06-10T03:52:42.196Z,22.50
2018-06-10T03:55:10.440Z,22.50
2018-06-10T03:57:38.683Z,22.50
2018-06-10T04:00:06.941Z,22.60
2018-06-10T04:02:35.185Z,22.60
2018-06-10T04:05:03.550Z,22.60
2018-06-10T04:07:31.888Z,22.60
2018-06-10T04:10:00.126Z,22.60
2018-06-10T04:12:28.353Z,22.60
2018-06-10T04:14:56.660Z,22.60
2018-06-10T04:17:24.991Z,22.60
2018-06-10T04:19:53.222Z,22.60
2018-06-10T04:22:21.485Z,22.70
2018-06-10T04:24:49.706Z,22.60
2018-06-10T04:29:45.942Z,20.90
2018-06-10T04:32:14.211Z,22.80
2018-06-10T04:34:42.454Z,22.80
2018-06-10T04:37:10.685Z,22.80
2018-06-10T04:39:38.910Z,22.80
2018-06-10T04:42:07.245Z,22.80
2018-06-10T04:44:35.438Z,22.80
2018-06-10T04:47:03.675Z,22.80
2018-06-10T04:49:31.944Z,22.80
2018-06-10T04:52:00.129Z,22.80
2018-06-10T04:54:28.369Z,22.70
2018-06-10T04:56:56.581Z,22.70
2018-06-10T04:59:24.901Z,22.70
2018-06-10T05:01:53.533Z,22.70
2018-06-10T05:06:49.776Z,22.60
2018-06-10T05:09:18.005Z,22.60
2018-06-10T05:11:46.209Z,22.50
2018-06-10T05:14:14.436Z,22.60
2018-06-10T05:16:42.725Z,22.60
2018-06-10T05:19:11.035Z,22.60
2018-06-10T05:21:39.279Z,22.70
2018-06-10T05:24:07.480Z,22.80
2018-06-10T05:26:35.759Z,22.80
2018-06-10T05:29:04.307Z,22.80
2018-06-10T05:31:32.618Z,22.90
2018-06-10T05:34:00.868Z,23.00
2018-06-10T05:36:29.149Z,23.10
2018-06-10T05:38:57.395Z,23.20
2018-06-10T05:41:25.616Z,23.20
2018-06-10T05:43:53.878Z,23.30
2018-06-10T05:46:22.150Z,23.30
2018-06-10T05:48:50.353Z,23.40
2018-06-10T05:51:18.621Z,23.40
2018-06-10T05:53:46.852Z,23.40
2018-06-10T05:56:15.145Z,23.40
2018-06-10T05:58:43.354Z,23.50
2018-06-10T06:01:11.610Z,23.50
2018-06-10T06:03:39.834Z,23.60
2018-06-10T06:06:08.086Z,23.70
2018-06-10T06:08:36.341Z,23.80
2018-06-10T06:11:04.783Z,23.80
2018-06-10T06:13:32.980Z,23.90
2018-06-10T06:16:01.198Z,24.00
2018-06-10T06:18:29.530Z,24.10
2018-06-10T06:20:57.765Z,24.20
2018-06-10T06:23:26.023Z,24.20
2018-06-10T06:25:54.323Z,24.30
2018-06-10T06:28:22.610Z,24.30
2018-06-10T06:30:50.922Z,24.30
2018-06-10T06:33:19.265Z,24.40
2018-06-10T06:35:47.595Z,24.40
2018-06-10T06:38:15.914Z,24.50
2018-06-10T06:40:44.788Z,24.50
2018-06-10T06:43:13.050Z,24.60
2018-06-10T06:45:41.353Z,24.70
2018-06-10T06:48:09.553Z,24.80
2018-06-10T06:50:37.853Z,24.90
2018-06-10T06:53:06.111Z,24.90
2018-06-10T06:55:34.355Z,25.00
2018-06-10T06:58:02.655Z,25.00
2018-06-10T07:00:30.864Z,25.00
2018-06-10T07:02:59.181Z,25.00
2018-06-10T07:05:27.390Z,25.00
2018-06-10T07:07:55.633Z,24.90
2018-06-10T07:10:23.922Z,24.80
2018-06-10T07:12:52.144Z,24.70
2018-06-10T07:15:20.441Z,24.60
2018-06-10T07:17:48.743Z,24.60
2018-06-10T07:20:17.322Z,24.70
2018-06-10T07:22:45.549Z,24.70
2018-06-10T07:25:13.801Z,24.70
2018-06-10T07:27:42.046Z,24.70
2018-06-10T07:30:10.443Z,24.80
2018-06-10T07:32:38.885Z,24.90
2018-06-10T07:35:07.169Z,24.90
2018-06-10T07:37:35.458Z,24.90
2018-06-10T07:40:03.800Z,24.80
2018-06-10T07:42:32.071Z,24.80
2018-06-10T07:45:00.338Z,24.80
2018-06-10T07:47:28.595Z,24.80
2018-06-10T07:49:57.275Z,24.90
2018-06-10T07:52:25.575Z,24.90
2018-06-10T07:54:53.813Z,24.80
2018-06-10T07:57:22.107Z,24.80
2018-06-10T07:59:50.421Z,24.80
2018-06-10T08:02:18.630Z,24.80
2018-06-10T08:04:46.938Z,24.80
2018-06-10T08:07:15.165Z,24.80
2018-06-10T08:09:43.451Z,24.70
2018-06-10T08:14:39.754Z,24.60
2018-06-10T08:17:08.033Z,24.60
2018-06-10T08:19:36.246Z,24.50
2018-06-10T08:22:04.707Z,24.40
2018-06-10T08:24:32.980Z,24.20
2018-06-10T08:27:01.154Z,24.10
2018-06-10T08:29:29.389Z,24.10
2018-06-10T08:31:57.660Z,24.00
2018-06-10T08:34:25.870Z,24.00
2018-06-10T08:36:54.154Z,24.00
2018-06-10T08:39:22.453Z,23.90
2018-06-10T08:41:50.693Z,24.00
2018-06-10T08:44:18.933Z,24.00
2018-06-10T08:46:47.377Z,24.00
2018-06-10T08:49:15.604Z,24.00
2018-06-10T08:51:43.837Z,24.10
2018-06-10T08:54:12.043Z,24.20
2018-06-10T08:56:40.248Z,24.40
2018-06-10T08:59:08.783Z,24.50
2018-06-10T09:01:37.079Z,24.50
2018-06-10T09:04:05.342Z,24.60
2018-06-10T09:06:33.688Z,24.80
2018-06-10T09:09:02.340Z,24.90
2018-06-10T09:11:30.744Z,25.20
2018-06-10T09:13:59.038Z,25.60
2018-06-10T09:16:27.309Z,25.80
2018-06-10T09:18:55.564Z,25.80
2018-06-10T09:21:24.162Z,26.10
2018-06-10T09:23:52.507Z,26.20
2018-06-10T09:26:20.841Z,26.20
2018-06-10T09:28:50.195Z,26.50
2018-06-10T09:31:18.474Z,26.70
2018-06-10T09:33:46.813Z,26.60
2018-06-10T09:36:15.462Z,26.50
2018-06-10T09:38:43.756Z,26.40
2018-06-10T09:41:12.727Z,26.30
2018-06-10T09:43:41.044Z,26.30
2018-06-10T09:46:09.422Z,26.10
2018-06-10T09:48:37.652Z,25.90
2018-06-10T09:51:05.957Z,25.80
2018-06-10T09:53:34.243Z,25.60
2018-06-10T09:56:02.557Z,25.40
2018-06-10T09:58:30.948Z,25.30
2018-06-10T10:00:59.222Z,25.40
2018-06-10T10:03:27.551Z,25.40
2018-06-10T10:05:55.986Z,25.40
2018-06-10T10:08:24.204Z,25.40
2018-06-10T10:10:52.615Z,25.30
2018-06-10T10:13:20.864Z,25.40
2018-06-10T10:15:49.246Z,25.60
2018-06-10T10:18:17.553Z,25.90
2018-06-10T10:20:45.852Z,26.20
2018-06-10T10:23:14.137Z,26.40
2018-06-10T10:25:42.453Z,26.50
2018-06-10T10:28:10.794Z,26.70
2018-06-10T10:30:39.123Z,26.70
2018-06-10T10:33:07.362Z,26.90
2018-06-10T10:35:35.659Z,27.10
2018-06-10T10:38:03.933Z,27.20
2018-06-10T10:40:32.423Z,27.40
2018-06-10T10:43:00.721Z,27.50
2018-06-10T10:45:29.381Z,27.50
2018-06-10T10:48:00.386Z,27.50
2018-06-10T10:50:30.224Z,27.50
2018-06-10T10:53:02.102Z,27.40
2018-06-10T10:55:48.878Z,27.30
2018-06-10T10:58:18.142Z,27.30
2018-06-10T11:00:46.832Z,27.30
2018-06-10T11:03:19.925Z,27.20
2018-06-10T11:05:48.981Z,27.20
2018-06-10T11:08:17.370Z,27.40
2018-06-10T11:10:46.270Z,27.60
2018-06-10T11:13:14.483Z,27.60
2018-06-10T11:15:42.912Z,27.60
2018-06-10T11:18:11.304Z,27.50
2018-06-10T11:20:39.526Z,27.40
2018-06-10T11:23:07.745Z,27.50
2018-06-10T11:25:36.850Z,27.60
2018-06-10T11:28:05.065Z,27.70
2018-06-10T11:30:33.359Z,27.90
2018-06-10T11:33:02.195Z,27.80
2018-06-10T11:35:30.955Z,27.80
2018-06-10T11:37:59.921Z,27.70
2018-06-10T11:40:28.392Z,27.80
2018-06-10T11:42:56.756Z,27.70
2018-06-10T11:45:25.063Z,27.70
2018-06-10T11:47:53.353Z,27.60
2018-06-10T11:50:21.603Z,27.40
2018-06-10T11:52:49.853Z,27.20
2018-06-10T11:55:18.911Z,27.20
2018-06-10T11:57:47.189Z,27.30
2018-06-10T12:00:15.829Z,27.70
2018-06-10T12:02:44.143Z,27.90
2018-06-10T12:05:12.706Z,27.90
2018-06-10T12:07:40.971Z,28.00
2018-06-10T12:10:09.203Z,28.20
2018-06-10T12:12:37.499Z,28.30
2018-06-10T12:15:05.938Z,28.10
2018-06-10T12:17:34.250Z,28.00
2018-06-10T12:20:02.505Z,28.00
2018-06-10T12:22:30.968Z,27.90
2018-06-10T12:24:59.658Z,27.80
2018-06-10T12:27:27.926Z,27.80
2018-06-10T12:29:56.656Z,28.00
2018-06-10T12:32:25.071Z,28.10
2018-06-10T12:34:53.553Z,28.30
2018-06-10T12:37:21.886Z,28.30
2018-06-10T12:39:51.035Z,28.30
2018-06-10T12:42:19.400Z,28.40
2018-06-10T12:44:48.603Z,28.60
2018-06-10T12:47:17.319Z,28.60
2018-06-10T12:49:45.611Z,28.70
2018-06-10T12:52:17.493Z,28.60
2018-06-10T12:54:45.928Z,28.30
2018-06-10T12:57:14.301Z,28.20
2018-06-10T12:59:42.610Z,28.10
2018-06-10T13:02:10.891Z,28.10
2018-06-10T13:04:39.081Z,28.30
2018-06-10T13:07:07.834Z,28.40
2018-06-10T13:09:36.045Z,28.50
2018-06-10T13:12:04.319Z,28.60
2018-06-10T13:14:32.749Z,28.50
2018-06-10T13:17:01.258Z,28.30
2018-06-10T13:19:29.447Z,28.10
2018-06-10T13:21:57.889Z,28.30
2018-06-10T13:24:26.178Z,28.20
2018-06-10T13:26:54.470Z,28.30
2018-06-10T13:29:22.757Z,28.30
2018-06-10T13:31:51.425Z,28.60
2018-06-10T13:34:19.623Z,28.60
2018-06-10T13:36:48.186Z,28.60
2018-06-10T13:39:16.492Z,28.60
2018-06-10T13:41:44.895Z,28.50
2018-06-10T13:44:13.118Z,28.20
2018-06-10T13:46:41.339Z,28.20
2018-06-10T13:49:09.600Z,28.40
2018-06-10T13:51:37.836Z,28.10
2018-06-10T13:54:06.124Z,28.00
2018-06-10T13:56:34.411Z,28.10
2018-06-10T13:59:02.902Z,28.00
2018-06-10T14:01:31.129Z,28.00
2018-06-10T14:03:59.787Z,27.90
2018-06-10T14:06:28.075Z,27.90
2018-06-10T14:08:56.305Z,27.80
2018-06-10T14:11:24.540Z,27.70
2018-06-10T14:13:52.777Z,27.80
2018-06-10T14:16:21.066Z,28.00
2018-06-10T14:18:49.313Z,27.90
2018-06-10T14:21:17.586Z,27.90
2018-06-10T14:23:45.941Z,27.90
2018-06-10T15:43:29.741Z,26.20
2018-06-10T15:45:58.000Z,26.30
2018-06-10T15:48:26.210Z,26.70
2018-06-10T15:50:54.469Z,26.90
2018-06-10T15:53:22.740Z,27.00
2018-06-10T15:55:50.954Z,27.20
2018-06-10T15:58:19.226Z,27.30
2018-06-10T16:00:47.497Z,27.40
2018-06-10T16:03:15.765Z,27.40
2018-06-10T16:05:43.991Z,27.60
2018-06-10T16:08:12.214Z,27.60
2018-06-10T16:10:40.469Z,27.80
2018-06-10T16:13:08.758Z,27.90
2018-06-10T16:15:37.099Z,27.80
2018-06-10T16:18:06.021Z,27.70
2018-06-10T16:20:34.221Z,27.70
2018-06-10T16:23:02.544Z,27.80
2018-06-10T16:25:30.842Z,28.00
2018-06-10T16:27:59.159Z,28.10
2018-06-10T16:30:27.401Z,28.00
2018-06-10T16:32:55.629Z,28.00
2018-06-10T16:35:23.898Z,28.10
2018-06-10T16:40:20.163Z,28.00
2018-06-10T16:42:48.429Z,28.00
2018-06-10T16:45:16.711Z,28.10
2018-06-10T16:47:44.938Z,28.10
2018-06-10T16:50:13.190Z,27.90
2018-06-10T16:52:41.492Z,27.80
2018-06-10T16:55:09.753Z,27.80
2018-06-10T16:57:38.046Z,27.90
2018-06-10T17:00:06.290Z,27.90
2018-06-10T17:02:34.576Z,27.80
2018-06-10T17:05:02.885Z,27.90
2018-06-10T17:07:31.181Z,27.90
2018-06-10T17:09:59.456Z,28.00
2018-06-10T17:12:27.718Z,28.00
2018-06-10T17:14:55.942Z,28.00
2018-06-10T17:17:24.186Z,27.90
2018-06-10T17:19:52.419Z,27.90
2018-06-10T17:22:20.629Z,27.90
2018-06-10T17:24:48.870Z,27.90
2018-06-10T17:27:17.175Z,27.80
2018-06-10T17:29:45.425Z,27.80
2018-06-10T17:32:13.669Z,27.80
2018-06-10T17:34:41.999Z,27.70
2018-06-10T17:37:10.486Z,27.50
2018-06-10T17:39:38.743Z,27.30
2018-06-10T17:42:06.966Z,27.20
2018-06-10T17:44:35.212Z,27.10
2018-06-10T17:47:03.564Z,27.00
2018-06-10T17:49:31.788Z,26.90
2018-06-10T17:52:00.040Z,26.90
2018-06-10T17:56:56.243Z,26.90
2018-06-10T17:59:24.513Z,26.90
2018-06-10T18:01:52.784Z,26.90
2018-06-10T18:04:21.045Z,26.80
2018-06-10T18:06:49.377Z,26.90
2018-06-10T18:09:17.702Z,26.80
2018-06-10T18:11:45.942Z,26.80
2018-06-10T18:14:14.202Z,26.80
2018-06-10T18:16:42.430Z,26.80
2018-06-10T18:19:10.625Z,26.70
2018-06-10T18:21:38.938Z,26.70
2018-06-10T18:24:07.175Z,26.60
2018-06-10T18:26:35.532Z,26.60
2018-06-10T18:29:03.761Z,26.60
2018-06-10T18:31:32.016Z,26.60
2018-06-10T18:34:00.287Z,26.60
2018-06-10T18:36:28.509Z,26.60
2018-06-10T18:38:56.735Z,26.50
2018-06-10T18:41:25.019Z,26.50
2018-06-10T18:43:53.287Z,26.50
2018-06-10T18:46:21.540Z,26.50
2018-06-10T18:48:49.794Z,26.40
2018-06-10T18:51:18.143Z,26.40
2018-06-10T18:53:46.445Z,26.40
2018-06-10T18:56:14.688Z,26.40
2018-06-10T18:58:42.978Z,26.40
2018-06-10T19:01:11.203Z,26.40
2018-06-10T19:03:39.409Z,26.30
2018-06-10T19:06:07.764Z,26.30
2018-06-10T19:08:35.994Z,26.30
2018-06-10T19:11:04.276Z,26.30
2018-06-10T19:13:32.521Z,26.30
2018-06-10T19:16:00.739Z,26.30
2018-06-10T19:18:28.946Z,26.20
2018-06-10T19:20:57.216Z,26.20
2018-06-10T19:23:25.433Z,26.20
2018-06-10T19:25:53.897Z,26.10
2018-06-10T19:28:22.178Z,26.10
2018-06-10T19:30:50.446Z,26.10
2018-06-10T19:33:18.817Z,26.00
2018-06-10T19:35:47.032Z,26.00
2018-06-10T19:38:15.252Z,26.00
2018-06-10T19:40:43.474Z,26.00
2018-06-10T19:43:11.800Z,26.00
2018-06-10T19:45:40.100Z,25.90
2018-06-10T19:48:08.398Z,25.80
2018-06-10T19:50:37.810Z,25.80
2018-06-10T19:53:06.372Z,25.80
2018-06-10T19:55:34.613Z,25.80
2018-06-10T19:58:02.844Z,25.70
2018-06-10T20:00:31.103Z,25.70
2018-06-10T20:02:59.380Z,25.70
2018-06-10T20:05:27.647Z,25.70
2018-06-10T20:07:55.885Z,25.60
2018-06-10T20:10:24.266Z,25.60
2018-06-10T20:12:52.636Z,25.50
2018-06-10T20:15:20.854Z,25.50
2018-06-10T20:17:49.079Z,25.50
2018-06-10T20:20:17.302Z,25.50
2018-06-10T20:22:45.576Z,25.50
2018-06-10T20:25:13.870Z,25.50
2018-06-10T20:27:42.181Z,25.40
2018-06-10T20:30:10.527Z,25.40
2018-06-10T20:32:38.757Z,25.30
2018-06-10T20:35:07.027Z,25.30
2018-06-10T20:37:36.178Z,25.30
2018-06-10T20:40:04.658Z,25.30
2018-06-10T20:42:40.124Z,25.30
2018-06-10T20:45:08.370Z,25.30
2018-06-10T20:47:36.907Z,25.30
2018-06-10T20:50:05.418Z,25.20
2018-06-10T20:52:33.689Z,25.20
2018-06-10T20:55:01.939Z,25.20
2018-06-10T20:57:31.394Z,25.20
2018-06-10T20:59:59.993Z,25.20
2018-06-10T21:02:29.429Z,25.10
2018-06-10T21:04:57.719Z,25.10
2018-06-10T21:07:33.306Z,25.00
2018-06-10T21:10:01.534Z,25.00
2018-06-10T21:12:32.089Z,25.00
2018-06-10T21:15:01.140Z,25.00
2018-06-10T21:17:30.292Z,25.00
2018-06-10T21:20:00.988Z,24.90
2018-06-10T21:22:31.389Z,24.90
2018-06-10T21:24:59.685Z,24.80
2018-06-10T21:27:27.892Z,24.80
2018-06-10T21:29:56.186Z,24.70
2018-06-10T21:32:24.437Z,24.70
2018-06-10T21:34:52.681Z,24.70
2018-06-10T21:37:20.949Z,24.70
2018-06-10T21:39:49.370Z,24.60
2018-06-10T21:42:17.589Z,24.60
2018-06-10T21:44:46.805Z,24.60
2018-06-10T21:47:15.026Z,24.60
2018-06-10T21:49:43.248Z,24.60
2018-06-10T21:52:11.488Z,24.50
2018-06-10T21:54:39.789Z,24.50
2018-06-10T21:57:08.000Z,24.50
2018-06-10T21:59:36.331Z,24.50
2018-06-10T22:02:04.540Z,24.50
2018-06-10T22:04:32.795Z,24.40
2018-06-10T22:07:01.006Z,24.40
2018-06-10T22:09:29.214Z,24.40
2018-06-10T22:11:57.529Z,24.40
2018-06-10T22:14:25.752Z,24.30
2018-06-10T22:16:53.992Z,24.30
2018-06-10T22:19:22.256Z,24.30
2018-06-10T22:21:50.509Z,24.20
2018-06-10T22:24:18.943Z,24.20
2018-06-10T22:26:47.202Z,24.20
2018-06-10T22:29:15.478Z,24.10
2018-06-10T22:31:43.742Z,24.00
2018-06-10T22:34:12.040Z,24.00
2018-06-10T22:36:40.265Z,24.00
2018-06-10T22:39:08.551Z,24.00
2018-06-10T22:41:36.838Z,24.00
2018-06-10T22:44:05.125Z,24.00
2018-06-10T22:46:33.363Z,24.00
2018-06-10T22:49:01.596Z,24.00
2018-06-10T22:51:29.832Z,23.90
2018-06-10T22:54:09.459Z,23.90
2018-06-10T22:56:37.994Z,23.80
2018-06-10T22:59:06.252Z,23.70
2018-06-10T23:01:34.501Z,23.70
2018-06-10T23:04:02.710Z,23.70
2018-06-10T23:06:30.886Z,23.70
2018-06-10T23:08:59.107Z,23.60
2018-06-10T23:11:27.333Z,23.60
2018-06-10T23:13:55.528Z,23.60
2018-06-10T23:16:23.736Z,23.60
2018-06-10T23:18:52.355Z,23.60
2018-06-10T23:21:20.529Z,23.60
2018-06-10T23:23:48.726Z,23.50
2018-06-10T23:26:16.940Z,23.40
2018-06-10T23:28:45.205Z,23.40
2018-06-10T23:31:13.429Z,23.40
2018-06-10T23:33:41.731Z,23.40
2018-06-10T23:36:09.953Z,23.40
2018-06-10T23:38:38.165Z,23.30
2018-06-10T23:41:06.414Z,23.20
2018-06-10T23:43:34.605Z,23.20
2018-06-10T23:46:02.880Z,23.20
2018-06-10T23:48:31.101Z,23.20
2018-06-10T23:51:00.317Z,23.20
2018-06-10T23:53:28.537Z,23.20
2018-06-10T23:55:56.801Z,23.20
2018-06-10T23:58:24.988Z,23.10
